sensor_id;sensor_type;location;lat;lon;timestamp;temperature;humidity
36924;DHT22;22841;50.252;18.688;2023-05-02T00:02:07;9.80;99.90
36924;DHT22;22841;50.252;18.688;2023-05-02T00:04:33;9.70;99.90
36924;DHT22;22841;50.252;18.688;2023-05-02T00:06:59;9.70;99.90
36924;DHT22;22841;50.252;18.688;2023-05-02T00:09:25;9.60;99.90
36924;DHT22;22841;50.252;18.688;2023-05-02T00:11:52;9.60;99.90
36924;DHT22;22841;50.252;18.688;2023-05-02T00:14:18;9.60;99.90
36924;DHT22;22841;50.252;18.688;2023-05-02T00:16:44;9.60;99.90
36924;DHT22;22841;50.252;18.688;2023-05-02T00:19:10;9.60;99.90
36924;DHT22;22841;50.252;18.688;2023-05-02T00:21:36;9.60;99.90
36924;DHT22;22841;50.252;18.688;2023-05-02T00:24:02;9.60;99.90
36924;DHT22;22841;50.252;18.688;2023-05-02T00:26:28;9.50;99.90
36924;DHT22;22841;50.252;18.688;2023-05-02T00:28:54;9.60;99.90
36924;DHT22;22841;50.252;18.688;2023-05-02T00:31:20;9.60;99.90
36924;DHT22;22841;50.252;18.688;2023-05-02T00:33:46;9.50;99.90
36924;DHT22;22841;50.252;18.688;2023-05-02T00:36:17;9.60;99.90
36924;DHT22;22841;50.252;18.688;2023-05-02T00:38:43;9.50;99.90
36924;DHT22;22841;50.252;18.688;2023-05-02T00:41:09;9.40;99.90
36924;DHT22;22841;50.252;18.688;2023-05-02T00:43:36;9.40;99.90
36924;DHT22;22841;50.252;18.688;2023-05-02T00:46:04;9.40;99.90
36924;DHT22;22841;50.252;18.688;2023-05-02T00:48:32;9.40;99.90
36924;DHT22;22841;50.252;18.688;2023-05-02T00:50:58;9.40;99.90
36924;DHT22;22841;50.252;18.688;2023-05-02T00:53:25;9.40;99.90
36924;DHT22;22841;50.252;18.688;2023-05-02T00:55:51;9.40;99.90
36924;DHT22;22841;50.252;18.688;2023-05-02T00:58:19;9.30;99.90
36924;DHT22;22841;50.252;18.688;2023-05-02T01:09:39;9.20;99.90
36924;DHT22;22841;50.252;18.688;2023-05-02T01:12:23;9.20;99.90
36924;DHT22;22841;50.252;18.688;2023-05-02T01:14:53;9.10;99.90
36924;DHT22;22841;50.252;18.688;2023-05-02T01:17:25;9.20;99.90
36924;DHT22;22841;50.252;18.688;2023-05-02T01:19:58;9.20;99.90
36924;DHT22;22841;50.252;18.688;2023-05-02T01:22:28;9.20;99.90
36924;DHT22;22841;50.252;18.688;2023-05-02T01:25:32;9.20;99.90
36924;DHT22;22841;50.252;18.688;2023-05-02T01:31:00;9.10;99.90
36924;DHT22;22841;50.252;18.688;2023-05-02T01:33:29;9.10;99.90
36924;DHT22;22841;50.252;18.688;2023-05-02T01:35:56;9.10;99.90
36924;DHT22;22841;50.252;18.688;2023-05-02T01:38:24;9.10;99.90
36924;DHT22;22841;50.252;18.688;2023-05-02T01:40:52;9.10;99.90
36924;DHT22;22841;50.252;18.688;2023-05-02T01:43:19;9.00;99.90
36924;DHT22;22841;50.252;18.688;2023-05-02T01:45:47;9.00;99.90
36924;DHT22;22841;50.252;18.688;2023-05-02T01:48:16;9.00;99.90
36924;DHT22;22841;50.252;18.688;2023-05-02T01:50:44;9.00;99.90
36924;DHT22;22841;50.252;18.688;2023-05-02T01:53:12;9.00;99.90
36924;DHT22;22841;50.252;18.688;2023-05-02T01:55:42;9.00;99.90
36924;DHT22;22841;50.252;18.688;2023-05-02T01:58:10;9.00;99.90
36924;DHT22;22841;50.252;18.688;2023-05-02T02:00:38;9.00;99.90
36924;DHT22;22841;50.252;18.688;2023-05-02T02:03:05;9.00;99.90
36924;DHT22;22841;50.252;18.688;2023-05-02T02:05:33;9.00;99.90
36924;DHT22;22841;50.252;18.688;2023-05-02T02:08:01;8.90;99.90
36924;DHT22;22841;50.252;18.688;2023-05-02T02:10:29;9.00;99.90
36924;DHT22;22841;50.252;18.688;2023-05-02T02:13:05;9.00;99.90
36924;DHT22;22841;50.252;18.688;2023-05-02T02:15:37;8.90;99.90
36924;DHT22;22841;50.252;18.688;2023-05-02T02:18:09;9.00;99.90
36924;DHT22;22841;50.252;18.688;2023-05-02T02:20:36;9.00;99.90
36924;DHT22;22841;50.252;18.688;2023-05-02T02:23:06;8.90;99.90
36924;DHT22;22841;50.252;18.688;2023-05-02T02:25:33;8.90;99.90
36924;DHT22;22841;50.252;18.688;2023-05-02T02:28:00;8.80;99.90
36924;DHT22;22841;50.252;18.688;2023-05-02T02:30:27;8.80;99.90
36924;DHT22;22841;50.252;18.688;2023-05-02T02:32:53;8.70;99.90
36924;DHT22;22841;50.252;18.688;2023-05-02T02:35:19;8.70;99.90
36924;DHT22;22841;50.252;18.688;2023-05-02T02:37:50;8.70;99.90
36924;DHT22;22841;50.252;18.688;2023-05-02T02:40:25;8.60;99.90
36924;DHT22;22841;50.252;18.688;2023-05-02T02:43:26;8.60;99.90
36924;DHT22;22841;50.252;18.688;2023-05-02T02:46:16;8.50;99.90
36924;DHT22;22841;50.252;18.688;2023-05-02T02:49:01;8.40;99.90
36924;DHT22;22841;50.252;18.688;2023-05-02T02:54:29;8.50;99.90
36924;DHT22;22841;50.252;18.688;2023-05-02T02:57:23;8.60;99.90
36924;DHT22;22841;50.252;18.688;2023-05-02T03:02:31;9.00;99.90
36924;DHT22;22841;50.252;18.688;2023-05-02T03:04:57;9.20;99.90
36924;DHT22;22841;50.252;18.688;2023-05-02T03:07:27;9.40;99.90
36924;DHT22;22841;50.252;18.688;2023-05-02T03:09:53;9.60;99.90
36924;DHT22;22841;50.252;18.688;2023-05-02T03:12:19;9.70;99.90
36924;DHT22;22841;50.252;18.688;2023-05-02T03:14:46;9.80;99.90
36924;DHT22;22841;50.252;18.688;2023-05-02T03:17:12;9.90;99.90
36924;DHT22;22841;50.252;18.688;2023-05-02T03:19:38;9.90;99.90
36924;DHT22;22841;50.252;18.688;2023-05-02T03:22:04;10.00;99.90
36924;DHT22;22841;50.252;18.688;2023-05-02T03:24:30;10.00;99.90
36924;DHT22;22841;50.252;18.688;2023-05-02T03:26:57;10.10;99.90
36924;DHT22;22841;50.252;18.688;2023-05-02T03:29:25;10.10;99.90
36924;DHT22;22841;50.252;18.688;2023-05-02T03:31:51;10.10;99.90
36924;DHT22;22841;50.252;18.688;2023-05-02T03:34:17;10.10;99.90
36924;DHT22;22841;50.252;18.688;2023-05-02T03:36:44;10.10;99.90
36924;DHT22;22841;50.252;18.688;2023-05-02T03:39:10;10.10;99.90
36924;DHT22;22841;50.252;18.688;2023-05-02T03:41:37;10.00;99.90
36924;DHT22;22841;50.252;18.688;2023-05-02T03:44:03;10.10;99.90
36924;DHT22;22841;50.252;18.688;2023-05-02T03:46:29;10.10;99.90
36924;DHT22;22841;50.252;18.688;2023-05-02T03:48:58;10.10;99.90
36924;DHT22;22841;50.252;18.688;2023-05-02T03:51:24;10.10;99.90
36924;DHT22;22841;50.252;18.688;2023-05-02T03:53:51;10.10;99.90
36924;DHT22;22841;50.252;18.688;2023-05-02T03:56:18;10.10;99.90
36924;DHT22;22841;50.252;18.688;2023-05-02T03:58:47;10.00;99.90
36924;DHT22;22841;50.252;18.688;2023-05-02T04:01:16;10.00;99.90
36924;DHT22;22841;50.252;18.688;2023-05-02T04:03:42;10.00;99.90
36924;DHT22;22841;50.252;18.688;2023-05-02T04:06:09;10.00;99.90
36924;DHT22;22841;50.252;18.688;2023-05-02T04:08:35;10.00;99.90
36924;DHT22;22841;50.252;18.688;2023-05-02T04:11:01;10.10;99.90
36924;DHT22;22841;50.252;18.688;2023-05-02T04:13:27;10.00;99.90
36924;DHT22;22841;50.252;18.688;2023-05-02T04:15:54;10.00;99.90
36924;DHT22;22841;50.252;18.688;2023-05-02T04:18:20;9.90;99.90
36924;DHT22;22841;50.252;18.688;2023-05-02T04:20:46;9.90;99.90
36924;DHT22;22841;50.252;18.688;2023-05-02T04:23:12;10.00;99.90
36924;DHT22;22841;50.252;18.688;2023-05-02T04:25:38;10.00;99.90
36924;DHT22;22841;50.252;18.688;2023-05-02T04:28:05;10.00;99.90
36924;DHT22;22841;50.252;18.688;2023-05-02T04:30:31;10.00;99.90
36924;DHT22;22841;50.252;18.688;2023-05-02T04:32:57;10.00;99.90
36924;DHT22;22841;50.252;18.688;2023-05-02T04:35:23;10.10;99.90
36924;DHT22;22841;50.252;18.688;2023-05-02T04:37:49;10.10;99.90
36924;DHT22;22841;50.252;18.688;2023-05-02T04:40:16;10.10;99.90
36924;DHT22;22841;50.252;18.688;2023-05-02T04:42:42;10.10;99.90
36924;DHT22;22841;50.252;18.688;2023-05-02T04:45:08;10.20;99.90
36924;DHT22;22841;50.252;18.688;2023-05-02T04:47:35;10.20;99.90
36924;DHT22;22841;50.252;18.688;2023-05-02T04:50:01;10.30;99.90
36924;DHT22;22841;50.252;18.688;2023-05-02T04:52:27;10.30;99.90
36924;DHT22;22841;50.252;18.688;2023-05-02T04:54:54;10.40;99.90
36924;DHT22;22841;50.252;18.688;2023-05-02T04:57:21;10.40;99.90
36924;DHT22;22841;50.252;18.688;2023-05-02T04:59:47;10.40;99.90
36924;DHT22;22841;50.252;18.688;2023-05-02T05:02:13;10.50;99.90
36924;DHT22;22841;50.252;18.688;2023-05-02T05:04:39;10.60;99.90
36924;DHT22;22841;50.252;18.688;2023-05-02T05:07:05;10.60;99.90
36924;DHT22;22841;50.252;18.688;2023-05-02T05:09:32;10.80;99.90
36924;DHT22;22841;50.252;18.688;2023-05-02T05:11:58;10.90;99.90
36924;DHT22;22841;50.252;18.688;2023-05-02T05:14:24;10.90;99.90
36924;DHT22;22841;50.252;18.688;2023-05-02T05:16:50;11.00;99.90
36924;DHT22;22841;50.252;18.688;2023-05-02T05:19:16;11.20;99.90
36924;DHT22;22841;50.252;18.688;2023-05-02T05:21:42;11.30;99.90
36924;DHT22;22841;50.252;18.688;2023-05-02T05:24:08;11.40;99.90
36924;DHT22;22841;50.252;18.688;2023-05-02T05:26:35;11.50;99.90
36924;DHT22;22841;50.252;18.688;2023-05-02T05:29:01;11.60;99.90
36924;DHT22;22841;50.252;18.688;2023-05-02T05:31:27;11.60;99.90
36924;DHT22;22841;50.252;18.688;2023-05-02T05:33:53;11.80;99.90
36924;DHT22;22841;50.252;18.688;2023-05-02T05:36:19;11.80;99.90
36924;DHT22;22841;50.252;18.688;2023-05-02T05:38:45;11.90;99.90
36924;DHT22;22841;50.252;18.688;2023-05-02T05:41:11;12.10;99.90
36924;DHT22;22841;50.252;18.688;2023-05-02T05:43:37;12.10;99.90
36924;DHT22;22841;50.252;18.688;2023-05-02T05:46:03;12.20;99.90
36924;DHT22;22841;50.252;18.688;2023-05-02T05:48:30;12.40;99.90
36924;DHT22;22841;50.252;18.688;2023-05-02T05:50:56;12.60;99.90
36924;DHT22;22841;50.252;18.688;2023-05-02T05:53:22;12.70;99.90
36924;DHT22;22841;50.252;18.688;2023-05-02T05:55:48;12.80;99.90
36924;DHT22;22841;50.252;18.688;2023-05-02T05:58:14;12.80;99.90
36924;DHT22;22841;50.252;18.688;2023-05-02T06:00:40;13.00;99.90
36924;DHT22;22841;50.252;18.688;2023-05-02T06:03:07;13.10;99.90
36924;DHT22;22841;50.252;18.688;2023-05-02T06:05:33;13.20;99.90
36924;DHT22;22841;50.252;18.688;2023-05-02T06:07:59;13.30;99.90
36924;DHT22;22841;50.252;18.688;2023-05-02T06:10:25;13.60;99.90
36924;DHT22;22841;50.252;18.688;2023-05-02T06:12:51;13.70;99.90
36924;DHT22;22841;50.252;18.688;2023-05-02T06:15:17;14.00;99.90
36924;DHT22;22841;50.252;18.688;2023-05-02T06:17:43;14.10;99.90
36924;DHT22;22841;50.252;18.688;2023-05-02T06:20:10;14.20;99.90
36924;DHT22;22841;50.252;18.688;2023-05-02T06:22:36;14.30;99.90
36924;DHT22;22841;50.252;18.688;2023-05-02T06:25:02;14.40;99.90
36924;DHT22;22841;50.252;18.688;2023-05-02T06:27:30;14.60;99.90
36924;DHT22;22841;50.252;18.688;2023-05-02T06:29:56;14.70;99.90
36924;DHT22;22841;50.252;18.688;2023-05-02T06:32:22;14.70;99.90
36924;DHT22;22841;50.252;18.688;2023-05-02T06:34:48;14.70;99.90
36924;DHT22;22841;50.252;18.688;2023-05-02T06:37:14;14.80;99.90
36924;DHT22;22841;50.252;18.688;2023-05-02T06:39:40;14.90;99.90
36924;DHT22;22841;50.252;18.688;2023-05-02T06:42:06;15.10;99.90
36924;DHT22;22841;50.252;18.688;2023-05-02T06:44:32;15.20;99.90
36924;DHT22;22841;50.252;18.688;2023-05-02T06:46:58;15.30;99.90
36924;DHT22;22841;50.252;18.688;2023-05-02T06:49:25;15.30;99.90
36924;DHT22;22841;50.252;18.688;2023-05-02T06:51:51;15.50;99.90
36924;DHT22;22841;50.252;18.688;2023-05-02T06:54:17;15.60;99.90
36924;DHT22;22841;50.252;18.688;2023-05-02T06:56:43;15.50;99.90
36924;DHT22;22841;50.252;18.688;2023-05-02T06:59:09;15.60;99.90
36924;DHT22;22841;50.252;18.688;2023-05-02T07:01:36;15.60;99.90
36924;DHT22;22841;50.252;18.688;2023-05-02T07:04:02;15.60;99.90
36924;DHT22;22841;50.252;18.688;2023-05-02T07:06:31;15.70;99.90
36924;DHT22;22841;50.252;18.688;2023-05-02T07:08:57;15.70;99.90
36924;DHT22;22841;50.252;18.688;2023-05-02T07:11:23;15.70;99.90
36924;DHT22;22841;50.252;18.688;2023-05-02T07:13:50;15.80;99.90
36924;DHT22;22841;50.252;18.688;2023-05-02T07:16:16;15.80;99.90
36924;DHT22;22841;50.252;18.688;2023-05-02T07:18:42;15.90;99.90
36924;DHT22;22841;50.252;18.688;2023-05-02T07:21:08;16.00;99.90
36924;DHT22;22841;50.252;18.688;2023-05-02T07:23:34;16.10;99.90
36924;DHT22;22841;50.252;18.688;2023-05-02T07:26:00;16.10;99.90
36924;DHT22;22841;50.252;18.688;2023-05-02T07:28:26;16.20;99.90
36924;DHT22;22841;50.252;18.688;2023-05-02T07:30:52;16.30;99.90
36924;DHT22;22841;50.252;18.688;2023-05-02T07:33:18;16.30;99.90
36924;DHT22;22841;50.252;18.688;2023-05-02T07:35:44;16.40;99.90
36924;DHT22;22841;50.252;18.688;2023-05-02T07:38:10;16.50;99.90
36924;DHT22;22841;50.252;18.688;2023-05-02T07:40:36;16.50;99.90
36924;DHT22;22841;50.252;18.688;2023-05-02T07:43:02;16.60;99.90
36924;DHT22;22841;50.252;18.688;2023-05-02T07:45:28;16.80;99.90
36924;DHT22;22841;50.252;18.688;2023-05-02T07:47:54;16.80;99.90
36924;DHT22;22841;50.252;18.688;2023-05-02T07:50:21;16.90;99.90
36924;DHT22;22841;50.252;18.688;2023-05-02T07:52:48;16.90;99.90
36924;DHT22;22841;50.252;18.688;2023-05-02T07:55:14;17.10;99.90
36924;DHT22;22841;50.252;18.688;2023-05-02T07:57:40;17.20;99.90
36924;DHT22;22841;50.252;18.688;2023-05-02T08:00:08;17.30;99.90
36924;DHT22;22841;50.252;18.688;2023-05-02T08:02:35;17.40;99.90
36924;DHT22;22841;50.252;18.688;2023-05-02T08:05:02;17.40;99.90
36924;DHT22;22841;50.252;18.688;2023-05-02T08:07:28;17.60;99.90
36924;DHT22;22841;50.252;18.688;2023-05-02T08:09:54;17.60;99.90
36924;DHT22;22841;50.252;18.688;2023-05-02T08:12:20;17.70;99.90
36924;DHT22;22841;50.252;18.688;2023-05-02T08:14:47;17.80;99.90
36924;DHT22;22841;50.252;18.688;2023-05-02T08:17:13;17.70;99.90
36924;DHT22;22841;50.252;18.688;2023-05-02T08:19:39;17.70;99.90
36924;DHT22;22841;50.252;18.688;2023-05-02T08:22:05;17.60;99.90
36924;DHT22;22841;50.252;18.688;2023-05-02T08:24:31;17.70;99.90
36924;DHT22;22841;50.252;18.688;2023-05-02T08:26:57;17.70;99.90
36924;DHT22;22841;50.252;18.688;2023-05-02T08:29:23;17.80;99.90
36924;DHT22;22841;50.252;18.688;2023-05-02T08:31:49;17.90;99.90
36924;DHT22;22841;50.252;18.688;2023-05-02T08:34:16;18.10;99.90
36924;DHT22;22841;50.252;18.688;2023-05-02T08:36:42;18.20;99.90
36924;DHT22;22841;50.252;18.688;2023-05-02T08:39:08;18.20;99.90
36924;DHT22;22841;50.252;18.688;2023-05-02T08:41:34;18.40;99.90
36924;DHT22;22841;50.252;18.688;2023-05-02T08:44:01;18.50;99.90
36924;DHT22;22841;50.252;18.688;2023-05-02T08:46:28;18.60;99.90
36924;DHT22;22841;50.252;18.688;2023-05-02T08:48:56;18.60;99.90
36924;DHT22;22841;50.252;18.688;2023-05-02T08:51:24;18.50;99.90
36924;DHT22;22841;50.252;18.688;2023-05-02T08:53:51;18.60;99.90
36924;DHT22;22841;50.252;18.688;2023-05-02T08:56:18;18.50;99.90
36924;DHT22;22841;50.252;18.688;2023-05-02T08:58:44;18.60;99.90
36924;DHT22;22841;50.252;18.688;2023-05-02T09:01:18;18.50;99.90
36924;DHT22;22841;50.252;18.688;2023-05-02T09:03:47;18.40;99.90
36924;DHT22;22841;50.252;18.688;2023-05-02T09:06:21;18.20;99.90
36924;DHT22;22841;50.252;18.688;2023-05-02T09:08:49;18.20;99.90
36924;DHT22;22841;50.252;18.688;2023-05-02T09:11:16;18.30;99.90
36924;DHT22;22841;50.252;18.688;2023-05-02T09:13:44;18.30;99.90
36924;DHT22;22841;50.252;18.688;2023-05-02T09:16:27;18.30;99.90
36924;DHT22;22841;50.252;18.688;2023-05-02T09:18:57;18.20;99.90
36924;DHT22;22841;50.252;18.688;2023-05-02T09:21:25;18.10;99.90
36924;DHT22;22841;50.252;18.688;2023-05-02T09:23:56;18.10;99.90
36924;DHT22;22841;50.252;18.688;2023-05-02T09:28:54;18.20;99.90
36924;DHT22;22841;50.252;18.688;2023-05-02T09:31:22;18.20;99.90
36924;DHT22;22841;50.252;18.688;2023-05-02T09:33:51;18.20;99.90
36924;DHT22;22841;50.252;18.688;2023-05-02T09:36:18;18.20;99.90
36924;DHT22;22841;50.252;18.688;2023-05-02T09:38:48;18.10;99.90
36924;DHT22;22841;50.252;18.688;2023-05-02T09:41:15;18.10;99.90
36924;DHT22;22841;50.252;18.688;2023-05-02T09:43:42;18.10;99.90
36924;DHT22;22841;50.252;18.688;2023-05-02T09:46:10;18.20;99.90
36924;DHT22;22841;50.252;18.688;2023-05-02T09:51:19;18.70;99.90
36924;DHT22;22841;50.252;18.688;2023-05-02T09:53:46;19.00;99.90
36924;DHT22;22841;50.252;18.688;2023-05-02T09:56:12;19.10;99.90
36924;DHT22;22841;50.252;18.688;2023-05-02T09:58:38;19.20;99.90
36924;DHT22;22841;50.252;18.688;2023-05-02T10:01:04;19.20;99.90
36924;DHT22;22841;50.252;18.688;2023-05-02T10:03:31;19.20;99.90
36924;DHT22;22841;50.252;18.688;2023-05-02T10:06:00;19.00;99.90
36924;DHT22;22841;50.252;18.688;2023-05-02T10:08:27;19.00;99.90
36924;DHT22;22841;50.252;18.688;2023-05-02T10:10:55;18.80;99.90
36924;DHT22;22841;50.252;18.688;2023-05-02T10:13:23;18.70;99.90
36924;DHT22;22841;50.252;18.688;2023-05-02T10:16:03;18.70;99.90
36924;DHT22;22841;50.252;18.688;2023-05-02T10:18:40;18.60;99.90
36924;DHT22;22841;50.252;18.688;2023-05-02T10:21:09;18.70;99.90
36924;DHT22;22841;50.252;18.688;2023-05-02T10:23:40;18.80;99.90
36924;DHT22;22841;50.252;18.688;2023-05-02T10:26:06;18.90;99.90
36924;DHT22;22841;50.252;18.688;2023-05-02T10:28:33;19.00;99.90
36924;DHT22;22841;50.252;18.688;2023-05-02T10:31:00;19.00;99.90
36924;DHT22;22841;50.252;18.688;2023-05-02T10:33:27;18.80;99.90
36924;DHT22;22841;50.252;18.688;2023-05-02T10:35:56;18.90;99.90
36924;DHT22;22841;50.252;18.688;2023-05-02T10:38:22;19.00;99.90
36924;DHT22;22841;50.252;18.688;2023-05-02T10:40:55;19.00;99.90
36924;DHT22;22841;50.252;18.688;2023-05-02T10:43:24;19.00;99.90
36924;DHT22;22841;50.252;18.688;2023-05-02T10:45:52;18.90;99.90
36924;DHT22;22841;50.252;18.688;2023-05-02T10:48:21;18.80;99.90
36924;DHT22;22841;50.252;18.688;2023-05-02T10:50:52;18.70;99.90
36924;DHT22;22841;50.252;18.688;2023-05-02T10:58:51;18.20;99.90
36924;DHT22;22841;50.252;18.688;2023-05-02T11:06:19;18.50;99.90
36924;DHT22;22841;50.252;18.688;2023-05-02T11:08:45;18.50;99.90
36924;DHT22;22841;50.252;18.688;2023-05-02T11:11:37;18.50;99.90
36924;DHT22;22841;50.252;18.688;2023-05-02T11:14:03;18.60;99.90
36924;DHT22;22841;50.252;18.688;2023-05-02T11:19:27;18.60;99.90
36924;DHT22;22841;50.252;18.688;2023-05-02T11:24:53;18.60;99.90
36924;DHT22;22841;50.252;18.688;2023-05-02T11:30:07;18.40;99.90
36924;DHT22;22841;50.252;18.688;2023-05-02T11:35:17;18.20;99.90
36924;DHT22;22841;50.252;18.688;2023-05-02T11:40:18;18.10;99.90
36924;DHT22;22841;50.252;18.688;2023-05-02T11:42:44;18.10;99.90
36924;DHT22;22841;50.252;18.688;2023-05-02T11:45:10;18.20;99.90
36924;DHT22;22841;50.252;18.688;2023-05-02T11:47:36;18.30;99.90
36924;DHT22;22841;50.252;18.688;2023-05-02T11:50:06;18.10;99.90
36924;DHT22;22841;50.252;18.688;2023-05-02T11:52:38;18.10;99.90
36924;DHT22;22841;50.252;18.688;2023-05-02T11:55:05;18.00;99.90
36924;DHT22;22841;50.252;18.688;2023-05-02T11:57:35;18.00;99.90
36924;DHT22;22841;50.252;18.688;2023-05-02T12:00:01;18.00;99.90
36924;DHT22;22841;50.252;18.688;2023-05-02T12:02:36;18.00;99.90
36924;DHT22;22841;50.252;18.688;2023-05-02T12:05:03;18.00;99.90
36924;DHT22;22841;50.252;18.688;2023-05-02T12:10:06;18.00;99.90
36924;DHT22;22841;50.252;18.688;2023-05-02T12:12:33;18.00;99.90
36924;DHT22;22841;50.252;18.688;2023-05-02T12:15:10;18.00;99.90
36924;DHT22;22841;50.252;18.688;2023-05-02T12:17:39;18.00;99.90
36924;DHT22;22841;50.252;18.688;2023-05-02T12:20:06;18.00;99.90
36924;DHT22;22841;50.252;18.688;2023-05-02T12:22:33;18.00;99.90
36924;DHT22;22841;50.252;18.688;2023-05-02T12:25:00;18.00;99.90
36924;DHT22;22841;50.252;18.688;2023-05-02T12:27:28;18.10;99.90
36924;DHT22;22841;50.252;18.688;2023-05-02T12:29:54;18.10;99.90
36924;DHT22;22841;50.252;18.688;2023-05-02T12:32:33;18.00;99.90
36924;DHT22;22841;50.252;18.688;2023-05-02T12:35:01;17.80;99.90
36924;DHT22;22841;50.252;18.688;2023-05-02T12:37:27;17.80;99.90
36924;DHT22;22841;50.252;18.688;2023-05-02T12:39:55;17.70;99.90
36924;DHT22;22841;50.252;18.688;2023-05-02T12:42:24;17.70;99.90
36924;DHT22;22841;50.252;18.688;2023-05-02T12:44:51;17.60;99.90
36924;DHT22;22841;50.252;18.688;2023-05-02T12:47:18;17.40;99.90
36924;DHT22;22841;50.252;18.688;2023-05-02T12:49:53;17.30;99.90
36924;DHT22;22841;50.252;18.688;2023-05-02T12:52:25;17.30;99.90
36924;DHT22;22841;50.252;18.688;2023-05-02T12:55:23;17.20;99.90
36924;DHT22;22841;50.252;18.688;2023-05-02T12:57:50;17.30;99.90
36924;DHT22;22841;50.252;18.688;2023-05-02T13:00:24;17.20;99.90
36924;DHT22;22841;50.252;18.688;2023-05-02T13:02:50;17.40;99.90
36924;DHT22;22841;50.252;18.688;2023-05-02T13:05:18;17.50;99.90
36924;DHT22;22841;50.252;18.688;2023-05-02T13:07:44;17.60;99.90
36924;DHT22;22841;50.252;18.688;2023-05-02T13:10:11;17.60;99.90
36924;DHT22;22841;50.252;18.688;2023-05-02T13:12:38;17.70;99.90
36924;DHT22;22841;50.252;18.688;2023-05-02T13:15:05;17.70;99.90
36924;DHT22;22841;50.252;18.688;2023-05-02T13:17:32;17.60;99.90
36924;DHT22;22841;50.252;18.688;2023-05-02T13:19:58;17.60;99.90
36924;DHT22;22841;50.252;18.688;2023-05-02T13:22:25;17.60;99.90
36924;DHT22;22841;50.252;18.688;2023-05-02T13:24:51;17.50;99.90
36924;DHT22;22841;50.252;18.688;2023-05-02T13:27:18;17.50;99.90
36924;DHT22;22841;50.252;18.688;2023-05-02T13:29:44;17.40;99.90
36924;DHT22;22841;50.252;18.688;2023-05-02T13:32:11;17.50;99.90
36924;DHT22;22841;50.252;18.688;2023-05-02T13:34:37;17.60;99.90
36924;DHT22;22841;50.252;18.688;2023-05-02T13:37:03;17.60;99.90
36924;DHT22;22841;50.252;18.688;2023-05-02T13:39:29;17.60;99.90
36924;DHT22;22841;50.252;18.688;2023-05-02T13:41:55;17.60;99.90
36924;DHT22;22841;50.252;18.688;2023-05-02T13:44:21;17.70;99.90
36924;DHT22;22841;50.252;18.688;2023-05-02T13:46:47;17.70;99.90
36924;DHT22;22841;50.252;18.688;2023-05-02T13:49:14;17.70;99.90
36924;DHT22;22841;50.252;18.688;2023-05-02T13:51:40;17.70;99.90
36924;DHT22;22841;50.252;18.688;2023-05-02T13:54:06;17.70;99.90
36924;DHT22;22841;50.252;18.688;2023-05-02T13:56:32;17.70;99.90
36924;DHT22;22841;50.252;18.688;2023-05-02T13:58:58;17.60;99.90
36924;DHT22;22841;50.252;18.688;2023-05-02T14:01:24;17.60;99.90
36924;DHT22;22841;50.252;18.688;2023-05-02T14:03:53;17.50;99.90
36924;DHT22;22841;50.252;18.688;2023-05-02T14:06:19;17.30;99.90
36924;DHT22;22841;50.252;18.688;2023-05-02T14:08:45;17.30;99.90
36924;DHT22;22841;50.252;18.688;2023-05-02T14:11:11;17.10;99.90
36924;DHT22;22841;50.252;18.688;2023-05-02T14:13:37;17.10;99.90
36924;DHT22;22841;50.252;18.688;2023-05-02T14:16:04;17.10;99.90
36924;DHT22;22841;50.252;18.688;2023-05-02T14:18:30;17.00;99.90
36924;DHT22;22841;50.252;18.688;2023-05-02T14:20:56;17.00;99.90
36924;DHT22;22841;50.252;18.688;2023-05-02T14:23:25;17.00;99.90
36924;DHT22;22841;50.252;18.688;2023-05-02T14:25:53;17.00;99.90
36924;DHT22;22841;50.252;18.688;2023-05-02T14:28:19;16.90;99.90
36924;DHT22;22841;50.252;18.688;2023-05-02T14:30:49;16.80;99.90
36924;DHT22;22841;50.252;18.688;2023-05-02T14:33:15;16.90;99.90
36924;DHT22;22841;50.252;18.688;2023-05-02T14:35:42;16.80;99.90
36924;DHT22;22841;50.252;18.688;2023-05-02T14:38:08;16.70;99.90
36924;DHT22;22841;50.252;18.688;2023-05-02T14:40:34;16.60;99.90
36924;DHT22;22841;50.252;18.688;2023-05-02T14:43:00;16.50;99.90
36924;DHT22;22841;50.252;18.688;2023-05-02T14:45:26;16.40;99.90
36924;DHT22;22841;50.252;18.688;2023-05-02T14:47:52;16.40;99.90
36924;DHT22;22841;50.252;18.688;2023-05-02T14:50:18;16.20;99.90
36924;DHT22;22841;50.252;18.688;2023-05-02T14:52:44;16.20;99.90
36924;DHT22;22841;50.252;18.688;2023-05-02T14:55:13;16.10;99.90
36924;DHT22;22841;50.252;18.688;2023-05-02T14:57:39;16.10;99.90
36924;DHT22;22841;50.252;18.688;2023-05-02T15:00:05;16.00;99.90
36924;DHT22;22841;50.252;18.688;2023-05-02T15:02:35;16.00;99.90
36924;DHT22;22841;50.252;18.688;2023-05-02T15:05:02;16.00;99.90
36924;DHT22;22841;50.252;18.688;2023-05-02T15:07:28;15.90;99.90
36924;DHT22;22841;50.252;18.688;2023-05-02T15:09:54;15.90;99.90
36924;DHT22;22841;50.252;18.688;2023-05-02T15:12:20;15.80;99.90
36924;DHT22;22841;50.252;18.688;2023-05-02T15:14:46;15.80;99.90
36924;DHT22;22841;50.252;18.688;2023-05-02T15:17:12;15.70;99.90
36924;DHT22;22841;50.252;18.688;2023-05-02T15:19:38;15.70;99.90
36924;DHT22;22841;50.252;18.688;2023-05-02T15:22:04;15.60;99.90
36924;DHT22;22841;50.252;18.688;2023-05-02T15:24:30;15.60;99.90
36924;DHT22;22841;50.252;18.688;2023-05-02T15:26:56;15.50;99.90
36924;DHT22;22841;50.252;18.688;2023-05-02T15:29:22;15.40;99.90
36924;DHT22;22841;50.252;18.688;2023-05-02T15:31:48;15.40;99.90
36924;DHT22;22841;50.252;18.688;2023-05-02T15:34:15;15.30;99.90
36924;DHT22;22841;50.252;18.688;2023-05-02T15:36:41;15.30;99.90
36924;DHT22;22841;50.252;18.688;2023-05-02T15:39:07;15.20;99.90
36924;DHT22;22841;50.252;18.688;2023-05-02T15:41:33;15.10;99.90
36924;DHT22;22841;50.252;18.688;2023-05-02T15:44:00;15.00;99.90
36924;DHT22;22841;50.252;18.688;2023-05-02T15:46:26;15.00;99.90
36924;DHT22;22841;50.252;18.688;2023-05-02T15:48:52;15.00;99.90
36924;DHT22;22841;50.252;18.688;2023-05-02T15:51:18;14.80;99.90
36924;DHT22;22841;50.252;18.688;2023-05-02T15:53:44;14.80;99.90
36924;DHT22;22841;50.252;18.688;2023-05-02T15:56:14;14.70;99.90
36924;DHT22;22841;50.252;18.688;2023-05-02T15:58:41;14.50;99.90
36924;DHT22;22841;50.252;18.688;2023-05-02T16:01:07;14.50;99.90
36924;DHT22;22841;50.252;18.688;2023-05-02T16:03:33;14.30;99.90
36924;DHT22;22841;50.252;18.688;2023-05-02T16:05:59;14.20;99.90
36924;DHT22;22841;50.252;18.688;2023-05-02T16:08:26;14.10;99.90
36924;DHT22;22841;50.252;18.688;2023-05-02T16:10:53;14.10;99.90
36924;DHT22;22841;50.252;18.688;2023-05-02T16:13:19;14.10;99.90